sensor_id;sensor_type;location;lat;lon;timestamp;temperature;humidity
7232;DHT22;3657;49.630;11.018;2023-04-07T00:00:14;6.20;90.70
7232;DHT22;3657;49.630;11.018;2023-04-07T00:02:42;6.20;90.80
7232;DHT22;3657;49.630;11.018;2023-04-07T00:05:10;6.20;90.80
7232;DHT22;3657;49.630;11.018;2023-04-07T00:07:36;6.10;90.80
7232;DHT22;3657;49.630;11.018;2023-04-07T00:10:05;6.10;90.80
7232;DHT22;3657;49.630;11.018;2023-04-07T00:12:32;6.10;90.80
7232;DHT22;3657;49.630;11.018;2023-04-07T00:15:00;6.00;90.80
7232;DHT22;3657;49.630;11.018;2023-04-07T00:17:27;6.00;90.80
7232;DHT22;3657;49.630;11.018;2023-04-07T00:19:53;6.00;90.90
7232;DHT22;3657;49.630;11.018;2023-04-07T00:22:20;5.90;90.80
7232;DHT22;3657;49.630;11.018;2023-04-07T00:24:46;5.90;90.80
7232;DHT22;3657;49.630;11.018;2023-04-07T00:27:14;5.90;90.90
7232;DHT22;3657;49.630;11.018;2023-04-07T00:29:41;5.80;91.20
7232;DHT22;3657;49.630;11.018;2023-04-07T00:32:10;5.80;91.00
7232;DHT22;3657;49.630;11.018;2023-04-07T00:34:37;5.80;91.00
7232;DHT22;3657;49.630;11.018;2023-04-07T00:37:04;5.80;90.90
7232;DHT22;3657;49.630;11.018;2023-04-07T00:39:31;5.80;91.00
7232;DHT22;3657;49.630;11.018;2023-04-07T00:41:58;5.70;91.00
7232;DHT22;3657;49.630;11.018;2023-04-07T00:44:26;5.70;91.00
7232;DHT22;3657;49.630;11.018;2023-04-07T00:46:53;5.70;91.00
7232;DHT22;3657;49.630;11.018;2023-04-07T00:49:20;5.70;91.00
7232;DHT22;3657;49.630;11.018;2023-04-07T00:51:46;5.70;91.00
7232;DHT22;3657;49.630;11.018;2023-04-07T00:54:14;5.60;90.90
7232;DHT22;3657;49.630;11.018;2023-04-07T00:56:40;5.40;90.50
7232;DHT22;3657;49.630;11.018;2023-04-07T00:59:07;5.10;91.10
7232;DHT22;3657;49.630;11.018;2023-04-07T01:01:43;4.80;90.90
7232;DHT22;3657;49.630;11.018;2023-04-07T01:04:14;4.40;91.30
7232;DHT22;3657;49.630;11.018;2023-04-07T01:06:49;4.20;92.10
7232;DHT22;3657;49.630;11.018;2023-04-07T01:09:20;4.30;92.20
7232;DHT22;3657;49.630;11.018;2023-04-07T01:11:53;4.40;92.50
7232;DHT22;3657;49.630;11.018;2023-04-07T01:14:22;4.70;92.40
7232;DHT22;3657;49.630;11.018;2023-04-07T01:16:52;4.80;92.30
7232;DHT22;3657;49.630;11.018;2023-04-07T01:19:31;4.90;92.10
7232;DHT22;3657;49.630;11.018;2023-04-07T01:21:59;5.00;92.00
7232;DHT22;3657;49.630;11.018;2023-04-07T01:24:41;5.10;91.90
7232;DHT22;3657;49.630;11.018;2023-04-07T01:27:18;5.10;91.90
7232;DHT22;3657;49.630;11.018;2023-04-07T01:29:48;5.10;91.70
7232;DHT22;3657;49.630;11.018;2023-04-07T01:32:17;5.10;91.70
7232;DHT22;3657;49.630;11.018;2023-04-07T01:34:47;5.10;91.70
7232;DHT22;3657;49.630;11.018;2023-04-07T01:37:15;5.10;91.70
7232;DHT22;3657;49.630;11.018;2023-04-07T01:39:42;5.10;91.70
7232;DHT22;3657;49.630;11.018;2023-04-07T01:42:09;5.10;91.70
7232;DHT22;3657;49.630;11.018;2023-04-07T01:44:37;5.10;91.70
7232;DHT22;3657;49.630;11.018;2023-04-07T01:47:06;5.00;91.60
7232;DHT22;3657;49.630;11.018;2023-04-07T01:49:34;5.00;91.60
7232;DHT22;3657;49.630;11.018;2023-04-07T01:52:02;5.00;91.70
7232;DHT22;3657;49.630;11.018;2023-04-07T01:54:30;5.00;91.70
7232;DHT22;3657;49.630;11.018;2023-04-07T01:56:56;5.00;91.70
7232;DHT22;3657;49.630;11.018;2023-04-07T01:59:24;4.90;91.70
7232;DHT22;3657;49.630;11.018;2023-04-07T02:01:50;4.90;91.80
7232;DHT22;3657;49.630;11.018;2023-04-07T02:04:23;4.90;91.80
7232;DHT22;3657;49.630;11.018;2023-04-07T02:06:53;4.90;91.80
7232;DHT22;3657;49.630;11.018;2023-04-07T02:09:22;4.80;91.80
7232;DHT22;3657;49.630;11.018;2023-04-07T02:11:51;4.80;91.80
7232;DHT22;3657;49.630;11.018;2023-04-07T02:14:20;4.80;91.90
7232;DHT22;3657;49.630;11.018;2023-04-07T02:16:49;4.80;91.90
7232;DHT22;3657;49.630;11.018;2023-04-07T02:19:18;4.70;91.90
7232;DHT22;3657;49.630;11.018;2023-04-07T02:21:45;4.70;91.90
7232;DHT22;3657;49.630;11.018;2023-04-07T02:24:12;4.70;91.90
7232;DHT22;3657;49.630;11.018;2023-04-07T02:26:39;4.70;92.00
7232;DHT22;3657;49.630;11.018;2023-04-07T02:29:06;4.60;92.00
7232;DHT22;3657;49.630;11.018;2023-04-07T02:31:32;4.70;92.00
7232;DHT22;3657;49.630;11.018;2023-04-07T02:33:59;4.60;92.00
7232;DHT22;3657;49.630;11.018;2023-04-07T02:36:27;4.60;92.10
7232;DHT22;3657;49.630;11.018;2023-04-07T02:38:54;4.60;92.10
7232;DHT22;3657;49.630;11.018;2023-04-07T02:41:21;4.50;92.10
7232;DHT22;3657;49.630;11.018;2023-04-07T02:43:47;4.50;92.20
7232;DHT22;3657;49.630;11.018;2023-04-07T02:46:14;4.50;92.20
7232;DHT22;3657;49.630;11.018;2023-04-07T02:48:40;4.50;92.30
7232;DHT22;3657;49.630;11.018;2023-04-07T02:51:07;4.40;92.30
7232;DHT22;3657;49.630;11.018;2023-04-07T02:53:35;4.40;92.40
7232;DHT22;3657;49.630;11.018;2023-04-07T02:56:02;4.40;92.40
7232;DHT22;3657;49.630;11.018;2023-04-07T02:58:29;4.40;92.40
7232;DHT22;3657;49.630;11.018;2023-04-07T03:00:55;4.40;92.50
7232;DHT22;3657;49.630;11.018;2023-04-07T03:03:22;4.30;92.40
7232;DHT22;3657;49.630;11.018;2023-04-07T03:05:49;4.30;92.50
7232;DHT22;3657;49.630;11.018;2023-04-07T03:08:15;4.30;92.50
7232;DHT22;3657;49.630;11.018;2023-04-07T03:10:43;4.30;92.50
7232;DHT22;3657;49.630;11.018;2023-04-07T03:13:10;4.30;92.50
7232;DHT22;3657;49.630;11.018;2023-04-07T03:15:40;4.30;92.60
7232;DHT22;3657;49.630;11.018;2023-04-07T03:18:07;4.20;92.50
7232;DHT22;3657;49.630;11.018;2023-04-07T03:20:33;4.20;92.50
7232;DHT22;3657;49.630;11.018;2023-04-07T03:23:00;4.20;92.50
7232;DHT22;3657;49.630;11.018;2023-04-07T03:25:27;4.20;92.60
7232;DHT22;3657;49.630;11.018;2023-04-07T03:27:55;4.10;92.60
7232;DHT22;3657;49.630;11.018;2023-04-07T03:30:21;4.10;92.60
7232;DHT22;3657;49.630;11.018;2023-04-07T03:32:48;4.10;92.70
7232;DHT22;3657;49.630;11.018;2023-04-07T03:35:15;4.10;92.70
7232;DHT22;3657;49.630;11.018;2023-04-07T03:37:41;4.10;92.70
7232;DHT22;3657;49.630;11.018;2023-04-07T03:40:09;4.10;92.80
7232;DHT22;3657;49.630;11.018;2023-04-07T03:42:36;4.10;92.80
7232;DHT22;3657;49.630;11.018;2023-04-07T03:45:04;4.00;92.70
7232;DHT22;3657;49.630;11.018;2023-04-07T03:47:31;4.00;92.80
7232;DHT22;3657;49.630;11.018;2023-04-07T03:49:58;4.00;92.80
7232;DHT22;3657;49.630;11.018;2023-04-07T03:52:25;4.00;92.90
7232;DHT22;3657;49.630;11.018;2023-04-07T03:54:51;4.00;92.90
7232;DHT22;3657;49.630;11.018;2023-04-07T03:57:18;4.00;92.90
7232;DHT22;3657;49.630;11.018;2023-04-07T03:59:45;4.00;92.90
7232;DHT22;3657;49.630;11.018;2023-04-07T04:02:16;4.00;93.00
7232;DHT22;3657;49.630;11.018;2023-04-07T04:04:43;3.90;93.00
7232;DHT22;3657;49.630;11.018;2023-04-07T04:07:10;4.00;93.00
7232;DHT22;3657;49.630;11.018;2023-04-07T04:09:36;4.00;93.10
7232;DHT22;3657;49.630;11.018;2023-04-07T04:12:03;3.90;93.00
7232;DHT22;3657;49.630;11.018;2023-04-07T04:14:30;3.90;93.10
7232;DHT22;3657;49.630;11.018;2023-04-07T04:16:57;3.90;93.10
7232;DHT22;3657;49.630;11.018;2023-04-07T04:19:25;3.90;93.20
7232;DHT22;3657;49.630;11.018;2023-04-07T04:21:52;3.90;93.20
7232;DHT22;3657;49.630;11.018;2023-04-07T04:24:18;3.80;93.20
7232;DHT22;3657;49.630;11.018;2023-04-07T04:26:45;3.80;93.30
7232;DHT22;3657;49.630;11.018;2023-04-07T04:29:11;3.80;93.30
7232;DHT22;3657;49.630;11.018;2023-04-07T04:31:38;3.80;93.40
7232;DHT22;3657;49.630;11.018;2023-04-07T04:34:05;3.80;93.70
7232;DHT22;3657;49.630;11.018;2023-04-07T04:36:33;3.70;93.40
7232;DHT22;3657;49.630;11.018;2023-04-07T04:38:59;3.70;93.40
7232;DHT22;3657;49.630;11.018;2023-04-07T04:41:26;3.70;93.50
7232;DHT22;3657;49.630;11.018;2023-04-07T04:43:53;3.70;93.80
7232;DHT22;3657;49.630;11.018;2023-04-07T04:46:19;3.80;93.50
7232;DHT22;3657;49.630;11.018;2023-04-07T04:48:46;3.70;93.50
7232;DHT22;3657;49.630;11.018;2023-04-07T04:51:13;3.80;93.60
7232;DHT22;3657;49.630;11.018;2023-04-07T04:53:41;3.70;93.50
7232;DHT22;3657;49.630;11.018;2023-04-07T04:56:07;3.70;93.50
7232;DHT22;3657;49.630;11.018;2023-04-07T04:58:34;3.70;93.60
7232;DHT22;3657;49.630;11.018;2023-04-07T05:01:01;3.70;93.60
7232;DHT22;3657;49.630;11.018;2023-04-07T05:03:28;3.70;93.60
7232;DHT22;3657;49.630;11.018;2023-04-07T05:05:54;3.70;93.60
7232;DHT22;3657;49.630;11.018;2023-04-07T05:08:21;3.80;93.70
7232;DHT22;3657;49.630;11.018;2023-04-07T05:10:49;3.80;93.70
7232;DHT22;3657;49.630;11.018;2023-04-07T05:13:16;3.80;93.60
7232;DHT22;3657;49.630;11.018;2023-04-07T05:15:42;3.90;93.60
7232;DHT22;3657;49.630;11.018;2023-04-07T05:18:09;3.90;93.60
7232;DHT22;3657;49.630;11.018;2023-04-07T05:20:35;3.90;93.50
7232;DHT22;3657;49.630;11.018;2023-04-07T05:23:02;3.90;93.50
7232;DHT22;3657;49.630;11.018;2023-04-07T05:25:29;4.00;93.50
7232;DHT22;3657;49.630;11.018;2023-04-07T05:27:58;4.00;93.40
7232;DHT22;3657;49.630;11.018;2023-04-07T05:30:25;4.00;93.40
7232;DHT22;3657;49.630;11.018;2023-04-07T05:32:52;4.10;93.30
7232;DHT22;3657;49.630;11.018;2023-04-07T05:35:19;4.10;93.30
7232;DHT22;3657;49.630;11.018;2023-04-07T05:37:45;4.20;93.30
7232;DHT22;3657;49.630;11.018;2023-04-07T05:40:12;4.20;93.20
7232;DHT22;3657;49.630;11.018;2023-04-07T05:42:40;4.30;93.10
7232;DHT22;3657;49.630;11.018;2023-04-07T05:45:10;4.40;93.10
7232;DHT22;3657;49.630;11.018;2023-04-07T05:47:36;4.40;92.90
7232;DHT22;3657;49.630;11.018;2023-04-07T05:50:04;4.50;92.90
7232;DHT22;3657;49.630;11.018;2023-04-07T05:52:30;4.50;92.90
7232;DHT22;3657;49.630;11.018;2023-04-07T05:54:57;4.50;92.80
7232;DHT22;3657;49.630;11.018;2023-04-07T05:57:24;4.50;92.90
7232;DHT22;3657;49.630;11.018;2023-04-07T05:59:52;4.50;92.90
7232;DHT22;3657;49.630;11.018;2023-04-07T06:02:20;4.60;93.00
7232;DHT22;3657;49.630;11.018;2023-04-07T06:04:47;4.60;92.90
7232;DHT22;3657;49.630;11.018;2023-04-07T06:07:13;4.60;92.80
7232;DHT22;3657;49.630;11.018;2023-04-07T06:09:40;4.60;92.80
7232;DHT22;3657;49.630;11.018;2023-04-07T06:12:07;4.70;92.90
7232;DHT22;3657;49.630;11.018;2023-04-07T06:14:35;4.70;92.90
7232;DHT22;3657;49.630;11.018;2023-04-07T06:17:01;4.80;92.90
7232;DHT22;3657;49.630;11.018;2023-04-07T06:19:29;4.90;92.90
7232;DHT22;3657;49.630;11.018;2023-04-07T06:21:56;5.00;92.70
7232;DHT22;3657;49.630;11.018;2023-04-07T06:24:22;5.20;92.60
7232;DHT22;3657;49.630;11.018;2023-04-07T06:26:50;5.30;92.60
7232;DHT22;3657;49.630;11.018;2023-04-07T06:29:17;5.30;92.80
7232;DHT22;3657;49.630;11.018;2023-04-07T06:31:43;5.40;92.60
7232;DHT22;3657;49.630;11.018;2023-04-07T06:34:10;5.40;92.90
7232;DHT22;3657;49.630;11.018;2023-04-07T06:36:38;5.50;92.90
7232;DHT22;3657;49.630;11.018;2023-04-07T06:39:05;5.60;92.90
7232;DHT22;3657;49.630;11.018;2023-04-07T06:41:31;5.70;93.00
7232;DHT22;3657;49.630;11.018;2023-04-07T06:43:58;5.90;93.10
7232;DHT22;3657;49.630;11.018;2023-04-07T06:46:24;6.00;92.90
7232;DHT22;3657;49.630;11.018;2023-04-07T06:48:51;6.20;93.00
7232;DHT22;3657;49.630;11.018;2023-04-07T06:51:18;6.30;92.50
7232;DHT22;3657;49.630;11.018;2023-04-07T06:53:46;6.30;92.40
7232;DHT22;3657;49.630;11.018;2023-04-07T06:56:13;6.40;92.60
7232;DHT22;3657;49.630;11.018;2023-04-07T06:58:40;6.50;92.50
7232;DHT22;3657;49.630;11.018;2023-04-07T07:01:07;6.60;92.60
7232;DHT22;3657;49.630;11.018;2023-04-07T07:03:33;6.70;92.10
7232;DHT22;3657;49.630;11.018;2023-04-07T07:06:01;6.90;92.10
7232;DHT22;3657;49.630;11.018;2023-04-07T07:08:28;6.90;91.90
7232;DHT22;3657;49.630;11.018;2023-04-07T07:10:56;7.00;92.00
7232;DHT22;3657;49.630;11.018;2023-04-07T07:13:24;7.10;92.30
7232;DHT22;3657;49.630;11.018;2023-04-07T07:15:52;7.50;92.40
7232;DHT22;3657;49.630;11.018;2023-04-07T07:18:18;7.70;92.40
7232;DHT22;3657;49.630;11.018;2023-04-07T07:20:45;8.00;92.40
7232;DHT22;3657;49.630;11.018;2023-04-07T07:23:12;8.10;92.30
7232;DHT22;3657;49.630;11.018;2023-04-07T07:25:38;8.20;93.50
7232;DHT22;3657;49.630;11.018;2023-04-07T07:28:07;8.30;92.20
7232;DHT22;3657;49.630;11.018;2023-04-07T07:30:34;8.60;92.10
7232;DHT22;3657;49.630;11.018;2023-04-07T07:33:00;8.70;92.60
7232;DHT22;3657;49.630;11.018;2023-04-07T07:35:27;8.80;92.90
7232;DHT22;3657;49.630;11.018;2023-04-07T07:37:54;8.90;92.80
7232;DHT22;3657;49.630;11.018;2023-04-07T07:40:20;9.10;92.90
7232;DHT22;3657;49.630;11.018;2023-04-07T07:42:47;9.20;93.20
7232;DHT22;3657;49.630;11.018;2023-04-07T07:45:15;9.20;93.70
7232;DHT22;3657;49.630;11.018;2023-04-07T07:47:44;9.40;92.80
7232;DHT22;3657;49.630;11.018;2023-04-07T07:50:10;9.50;92.90
7232;DHT22;3657;49.630;11.018;2023-04-07T07:52:37;9.60;92.90
7232;DHT22;3657;49.630;11.018;2023-04-07T07:55:04;9.60;93.40
7232;DHT22;3657;49.630;11.018;2023-04-07T07:57:31;9.70;91.00
7232;DHT22;3657;49.630;11.018;2023-04-07T07:59:57;10.00;92.70
7232;DHT22;3657;49.630;11.018;2023-04-07T08:02:25;10.00;92.80
7232;DHT22;3657;49.630;11.018;2023-04-07T08:04:55;10.00;93.70
7232;DHT22;3657;49.630;11.018;2023-04-07T08:07:22;10.00;94.60
7232;DHT22;3657;49.630;11.018;2023-04-07T08:09:49;10.10;93.70
7232;DHT22;3657;49.630;11.018;2023-04-07T08:12:16;10.20;94.00
7232;DHT22;3657;49.630;11.018;2023-04-07T08:14:42;10.40;95.00
7232;DHT22;3657;49.630;11.018;2023-04-07T08:17:09;10.40;91.90
7232;DHT22;3657;49.630;11.018;2023-04-07T08:19:38;10.50;92.70
7232;DHT22;3657;49.630;11.018;2023-04-07T08:22:05;10.60;93.70
7232;DHT22;3657;49.630;11.018;2023-04-07T08:24:31;10.80;91.80
7232;DHT22;3657;49.630;11.018;2023-04-07T08:26:58;11.00;96.00
7232;DHT22;3657;49.630;11.018;2023-04-07T08:29:25;11.00;97.20
7232;DHT22;3657;49.630;11.018;2023-04-07T08:31:52;11.10;94.70
7232;DHT22;3657;49.630;11.018;2023-04-07T08:34:19;11.10;97.60
7232;DHT22;3657;49.630;11.018;2023-04-07T08:36:47;11.20;95.30
7232;DHT22;3657;49.630;11.018;2023-04-07T08:39:13;11.40;87.20
7232;DHT22;3657;49.630;11.018;2023-04-07T08:41:41;11.50;93.90
7232;DHT22;3657;49.630;11.018;2023-04-07T08:44:09;11.60;97.30
7232;DHT22;3657;49.630;11.018;2023-04-07T08:46:38;11.60;94.70
7232;DHT22;3657;49.630;11.018;2023-04-07T08:49:08;11.50;96.70
7232;DHT22;3657;49.630;11.018;2023-04-07T08:51:37;11.50;98.10
7232;DHT22;3657;49.630;11.018;2023-04-07T08:54:08;11.50;97.00
7232;DHT22;3657;49.630;11.018;2023-04-07T08:56:37;11.50;98.10
7232;DHT22;3657;49.630;11.018;2023-04-07T08:59:05;11.40;98.50
7232;DHT22;3657;49.630;11.018;2023-04-07T09:01:34;11.50;97.80
7232;DHT22;3657;49.630;11.018;2023-04-07T09:04:01;11.50;96.60
7232;DHT22;3657;49.630;11.018;2023-04-07T09:06:29;11.60;97.10
7232;DHT22;3657;49.630;11.018;2023-04-07T09:08:56;11.60;98.10
7232;DHT22;3657;49.630;11.018;2023-04-07T09:11:25;11.60;94.00
7232;DHT22;3657;49.630;11.018;2023-04-07T09:13:52;11.70;92.80
7232;DHT22;3657;49.630;11.018;2023-04-07T09:16:19;11.90;96.70
7232;DHT22;3657;49.630;11.018;2023-04-07T09:18:46;12.30;93.60
7232;DHT22;3657;49.630;11.018;2023-04-07T09:21:12;12.70;94.50
7232;DHT22;3657;49.630;11.018;2023-04-07T09:23:40;13.10;91.40
7232;DHT22;3657;49.630;11.018;2023-04-07T09:26:22;13.40;91.10
7232;DHT22;3657;49.630;11.018;2023-04-07T09:28:51;13.60;95.30
7232;DHT22;3657;49.630;11.018;2023-04-07T09:31:19;13.60;94.60
7232;DHT22;3657;49.630;11.018;2023-04-07T09:33:47;13.80;93.40
7232;DHT22;3657;49.630;11.018;2023-04-07T09:36:13;14.00;95.90
7232;DHT22;3657;49.630;11.018;2023-04-07T09:38:41;14.10;88.40
7232;DHT22;3657;49.630;11.018;2023-04-07T09:41:09;14.30;93.30
7232;DHT22;3657;49.630;11.018;2023-04-07T09:43:37;14.50;94.80
7232;DHT22;3657;49.630;11.018;2023-04-07T09:46:10;14.70;89.20
7232;DHT22;3657;49.630;11.018;2023-04-07T09:48:38;15.00;95.60
7232;DHT22;3657;49.630;11.018;2023-04-07T09:51:06;15.10;95.30
7232;DHT22;3657;49.630;11.018;2023-04-07T09:53:41;15.40;92.80
7232;DHT22;3657;49.630;11.018;2023-04-07T09:56:09;15.50;92.40
7232;DHT22;3657;49.630;11.018;2023-04-07T09:58:37;15.70;94.00
7232;DHT22;3657;49.630;11.018;2023-04-07T10:01:05;15.80;92.50
7232;DHT22;3657;49.630;11.018;2023-04-07T10:03:34;16.10;92.70
7232;DHT22;3657;49.630;11.018;2023-04-07T10:06:01;16.20;92.00
7232;DHT22;3657;49.630;11.018;2023-04-07T10:08:31;16.10;96.00
7232;DHT22;3657;49.630;11.018;2023-04-07T10:10:58;16.10;96.00
7232;DHT22;3657;49.630;11.018;2023-04-07T10:13:27;16.10;92.50
7232;DHT22;3657;49.630;11.018;2023-04-07T10:15:54;16.00;96.40
7232;DHT22;3657;49.630;11.018;2023-04-07T10:18:22;15.90;94.30
7232;DHT22;3657;49.630;11.018;2023-04-07T10:20:53;15.80;92.70
7232;DHT22;3657;49.630;11.018;2023-04-07T10:23:24;15.60;93.30
7232;DHT22;3657;49.630;11.018;2023-04-07T10:25:53;15.80;96.40
7232;DHT22;3657;49.630;11.018;2023-04-07T10:28:24;16.00;95.30
7232;DHT22;3657;49.630;11.018;2023-04-07T10:30:52;16.20;95.90
7232;DHT22;3657;49.630;11.018;2023-04-07T10:33:43;16.40;95.50
7232;DHT22;3657;49.630;11.018;2023-04-07T10:36:11;16.60;95.30
7232;DHT22;3657;49.630;11.018;2023-04-07T10:38:38;16.80;96.20
7232;DHT22;3657;49.630;11.018;2023-04-07T10:41:30;16.90;95.90
7232;DHT22;3657;49.630;11.018;2023-04-07T10:43:57;17.00;94.40
7232;DHT22;3657;49.630;11.018;2023-04-07T10:46:24;17.20;96.30
7232;DHT22;3657;49.630;11.018;2023-04-07T10:49:09;17.30;96.50
7232;DHT22;3657;49.630;11.018;2023-04-07T10:51:37;17.50;96.80
7232;DHT22;3657;49.630;11.018;2023-04-07T10:54:21;17.60;91.90
7232;DHT22;3657;49.630;11.018;2023-04-07T10:57:10;17.80;94.20
7232;DHT22;3657;49.630;11.018;2023-04-07T10:59:39;17.70;94.80
7232;DHT22;3657;49.630;11.018;2023-04-07T11:02:31;17.90;96.40
7232;DHT22;3657;49.630;11.018;2023-04-07T11:04:59;18.00;96.50
7232;DHT22;3657;49.630;11.018;2023-04-07T11:07:51;18.10;95.90
7232;DHT22;3657;49.630;11.018;2023-04-07T11:10:19;18.20;96.50
7232;DHT22;3657;49.630;11.018;2023-04-07T11:12:58;18.20;96.40
7232;DHT22;3657;49.630;11.018;2023-04-07T11:15:25;18.20;91.00
7232;DHT22;3657;49.630;11.018;2023-04-07T11:18:21;18.30;96.80
7232;DHT22;3657;49.630;11.018;2023-04-07T11:20:51;18.40;96.60
7232;DHT22;3657;49.630;11.018;2023-04-07T11:23:20;18.40;96.50
7232;DHT22;3657;49.630;11.018;2023-04-07T11:25:49;18.30;75.00
7232;DHT22;3657;49.630;11.018;2023-04-07T11:28:16;17.80;86.50
7232;DHT22;3657;49.630;11.018;2023-04-07T11:30:48;17.60;92.60
7232;DHT22;3657;49.630;11.018;2023-04-07T11:33:17;17.80;90.50
7232;DHT22;3657;49.630;11.018;2023-04-07T11:35:49;17.90;95.70
7232;DHT22;3657;49.630;11.018;2023-04-07T11:38:17;17.90;95.30
7232;DHT22;3657;49.630;11.018;2023-04-07T11:40:45;17.60;74.90
7232;DHT22;3657;49.630;11.018;2023-04-07T11:43:16;17.60;94.80
7232;DHT22;3657;49.630;11.018;2023-04-07T11:45:44;17.30;81.20
7232;DHT22;3657;49.630;11.018;2023-04-07T11:48:27;17.30;91.70
7232;DHT22;3657;49.630;11.018;2023-04-07T11:50:54;17.40;93.10
7232;DHT22;3657;49.630;11.018;2023-04-07T11:53:28;17.50;92.20
7232;DHT22;3657;49.630;11.018;2023-04-07T11:56:03;17.50;93.60
7232;DHT22;3657;49.630;11.018;2023-04-07T11:58:31;17.60;93.70
7232;DHT22;3657;49.630;11.018;2023-04-07T12:00:58;17.70;87.70
7232;DHT22;3657;49.630;11.018;2023-04-07T12:03:29;17.60;91.30
7232;DHT22;3657;49.630;11.018;2023-04-07T12:05:56;17.50;93.40
7232;DHT22;3657;49.630;11.018;2023-04-07T12:08:36;17.60;90.40
7232;DHT22;3657;49.630;11.018;2023-04-07T12:11:05;17.70;92.50
7232;DHT22;3657;49.630;11.018;2023-04-07T12:13:32;17.60;92.00
7232;DHT22;3657;49.630;11.018;2023-04-07T12:15:59;17.50;87.80
7232;DHT22;3657;49.630;11.018;2023-04-07T12:18:26;17.70;94.90
7232;DHT22;3657;49.630;11.018;2023-04-07T12:20:54;17.80;95.40
7232;DHT22;3657;49.630;11.018;2023-04-07T12:23:23;17.90;89.80
7232;DHT22;3657;49.630;11.018;2023-04-07T12:25:50;18.00;95.00
7232;DHT22;3657;49.630;11.018;2023-04-07T12:28:18;18.10;91.30
7232;DHT22;3657;49.630;11.018;2023-04-07T12:30:45;18.30;95.60
7232;DHT22;3657;49.630;11.018;2023-04-07T12:33:11;18.30;94.70
7232;DHT22;3657;49.630;11.018;2023-04-07T12:35:38;18.40;91.00
7232;DHT22;3657;49.630;11.018;2023-04-07T12:38:05;18.50;95.30
7232;DHT22;3657;49.630;11.018;2023-04-07T12:40:32;18.80;95.30
7232;DHT22;3657;49.630;11.018;2023-04-07T12:43:00;19.00;95.20
7232;DHT22;3657;49.630;11.018;2023-04-07T12:45:28;19.20;95.60
7232;DHT22;3657;49.630;11.018;2023-04-07T12:47:56;19.60;94.30
7232;DHT22;3657;49.630;11.018;2023-04-07T12:50:23;19.70;93.00
7232;DHT22;3657;49.630;11.018;2023-04-07T12:52:51;19.70;93.10
7232;DHT22;3657;49.630;11.018;2023-04-07T12:55:18;19.80;89.30
7232;DHT22;3657;49.630;11.018;2023-04-07T12:57:45;19.70;94.90
7232;DHT22;3657;49.630;11.018;2023-04-07T13:00:13;19.70;95.30
7232;DHT22;3657;49.630;11.018;2023-04-07T13:02:41;19.70;95.40
7232;DHT22;3657;49.630;11.018;2023-04-07T13:05:08;19.70;95.30
7232;DHT22;3657;49.630;11.018;2023-04-07T13:07:34;19.80;94.80
7232;DHT22;3657;49.630;11.018;2023-04-07T13:10:02;19.90;94.40
7232;DHT22;3657;49.630;11.018;2023-04-07T13:12:30;20.00;95.30
7232;DHT22;3657;49.630;11.018;2023-04-07T13:14:57;20.10;95.20
7232;DHT22;3657;49.630;11.018;2023-04-07T13:17:23;20.10;95.30
7232;DHT22;3657;49.630;11.018;2023-04-07T13:19:51;20.20;92.50
7232;DHT22;3657;49.630;11.018;2023-04-07T13:22:18;20.30;95.00
7232;DHT22;3657;49.630;11.018;2023-04-07T13:24:45;20.50;94.40
7232;DHT22;3657;49.630;11.018;2023-04-07T13:27:11;20.60;93.40
7232;DHT22;3657;49.630;11.018;2023-04-07T13:29:38;20.80;93.50
7232;DHT22;3657;49.630;11.018;2023-04-07T13:32:05;21.00;93.40
7232;DHT22;3657;49.630;11.018;2023-04-07T13:34:32;21.00;93.60
7232;DHT22;3657;49.630;11.018;2023-04-07T13:37:01;21.10;91.90
7232;DHT22;3657;49.630;11.018;2023-04-07T13:39:28;21.20;92.00
7232;DHT22;3657;49.630;11.018;2023-04-07T13:41:55;21.10;92.90
7232;DHT22;3657;49.630;11.018;2023-04-07T13:44:22;21.10;92.80
7232;DHT22;3657;49.630;11.018;2023-04-07T13:46:48;21.10;93.20
7232;DHT22;3657;49.630;11.018;2023-04-07T13:49:15;21.00;92.90
7232;DHT22;3657;49.630;11.018;2023-04-07T13:51:42;20.90;93.20
7232;DHT22;3657;49.630;11.018;2023-04-07T13:54:10;20.90;92.80
7232;DHT22;3657;49.630;11.018;2023-04-07T13:56:36;20.90;91.70
7232;DHT22;3657;49.630;11.018;2023-04-07T13:59:04;21.00;91.90
7232;DHT22;3657;49.630;11.018;2023-04-07T14:01:31;21.10;92.70
7232;DHT22;3657;49.630;11.018;2023-04-07T14:03:58;21.10;93.10
7232;DHT22;3657;49.630;11.018;2023-04-07T14:06:24;21.10;92.30
7232;DHT22;3657;49.630;11.018;2023-04-07T14:08:51;21.20;92.70
7232;DHT22;3657;49.630;11.018;2023-04-07T14:11:20;21.20;92.00
7232;DHT22;3657;49.630;11.018;2023-04-07T14:13:48;21.30;91.40
7232;DHT22;3657;49.630;11.018;2023-04-07T14:16:15;21.40;90.60
7232;DHT22;3657;49.630;11.018;2023-04-07T14:18:42;21.40;90.20
7232;DHT22;3657;49.630;11.018;2023-04-07T14:21:09;21.40;90.60
7232;DHT22;3657;49.630;11.018;2023-04-07T14:23:36;21.40;89.70
7232;DHT22;3657;49.630;11.018;2023-04-07T14:26:03;21.20;90.20
7232;DHT22;3657;49.630;11.018;2023-04-07T14:28:31;21.10;90.00
7232;DHT22;3657;49.630;11.018;2023-04-07T14:30:58;21.00;91.40
7232;DHT22;3657;49.630;11.018;2023-04-07T14:33:24;21.00;89.20
7232;DHT22;3657;49.630;11.018;2023-04-07T14:35:51;21.00;87.70
7232;DHT22;3657;49.630;11.018;2023-04-07T14:38:18;20.90;89.30
7232;DHT22;3657;49.630;11.018;2023-04-07T14:40:48;20.80;90.20
7232;DHT22;3657;49.630;11.018;2023-04-07T14:43:15;20.70;90.60
7232;DHT22;3657;49.630;11.018;2023-04-07T14:45:43;20.70;89.90
7232;DHT22;3657;49.630;11.018;2023-04-07T14:48:10;20.60;90.00
7232;DHT22;3657;49.630;11.018;2023-04-07T14:50:37;20.50;90.30
7232;DHT22;3657;49.630;11.018;2023-04-07T14:53:04;20.40;90.80
7232;DHT22;3657;49.630;11.018;2023-04-07T14:55:32;20.40;91.10
7232;DHT22;3657;49.630;11.018;2023-04-07T14:57:58;20.30;89.10
7232;DHT22;3657;49.630;11.018;2023-04-07T15:00:25;20.30;90.50
7232;DHT22;3657;49.630;11.018;2023-04-07T15:02:54;20.30;90.60
7232;DHT22;3657;49.630;11.018;2023-04-07T15:05:21;20.20;86.00
7232;DHT22;3657;49.630;11.018;2023-04-07T15:07:47;20.20;90.40
7232;DHT22;3657;49.630;11.018;2023-04-07T15:10:17;20.10;91.00
7232;DHT22;3657;49.630;11.018;2023-04-07T15:12:43;20.10;91.20
7232;DHT22;3657;49.630;11.018;2023-04-07T15:15:11;20.10;88.80
7232;DHT22;3657;49.630;11.018;2023-04-07T15:17:38;20.10;90.30
7232;DHT22;3657;49.630;11.018;2023-04-07T15:20:06;20.00;90.90
7232;DHT22;3657;49.630;11.018;2023-04-07T15:22:34;19.90;90.40
7232;DHT22;3657;49.630;11.018;2023-04-07T15:25:01;19.90;90.50
7232;DHT22;3657;49.630;11.018;2023-04-07T15:27:28;19.80;90.10
7232;DHT22;3657;49.630;11.018;2023-04-07T15:29:55;19.80;89.60
7232;DHT22;3657;49.630;11.018;2023-04-07T15:32:21;19.80;90.00
7232;DHT22;3657;49.630;11.018;2023-04-07T15:34:48;19.70;89.60
7232;DHT22;3657;49.630;11.018;2023-04-07T15:37:16;19.70;90.20
7232;DHT22;3657;49.630;11.018;2023-04-07T15:39:43;19.60;90.70
7232;DHT22;3657;49.630;11.018;2023-04-07T15:42:10;19.50;90.50
7232;DHT22;3657;49.630;11.018;2023-04-07T15:44:37;19.40;90.70
7232;DHT22;3657;49.630;11.018;2023-04-07T15:47:04;19.30;90.80
7232;DHT22;3657;49.630;11.018;2023-04-07T15:49:31;19.30;91.00
7232;DHT22;3657;49.630;11.018;2023-04-07T15:51:58;19.20;91.10
7232;DHT22;3657;49.630;11.018;2023-04-07T15:54:26;19.20;90.60
7232;DHT22;3657;49.630;11.018;2023-04-07T15:56:53;19.10;87.80
7232;DHT22;3657;49.630;11.018;2023-04-07T15:59:20;19.10;89.70